Bei Facebook empfehlenBei Twitter postenGoogle plusPinterest

Das Wetter im Erzgebirge am 04.04.2016

Wetter und Klima am 04.04.2016 Holzhau im Erzgebirge (630m ü.NN)
Letzte gemessene Temperatur und Uhrzeit der Messung23:45:00 Uhr5.30 °C
Temperatur (Maximum / Höchstwert) und Uhrzeit der Messung11:30:00 Uhr20.40 °C
Temperatur (Minimum / Tiefstwert) und Uhrzeit der Messung23:45:005.30 °C
Errechneter Absolutwert der Temperaturschwankungen zwischen Tmin und Tmax des Tages15.10 K
Errechnete Tagesmitteltemperatur12.28542 °C
Gesamt - Niederschlag des Tages (in flüssiger Form)0.00 Liter / m²
Luftdruck (Maximum / Höchstwert) und Zeitpunkt der Messung00:00:00 Uhr1007.60 hPa
Luftdruck (Minimum / Tiefstwert) und Zeitpunkt der Messung14:45:00 Uhr1004.60 hPa
Errechneter Absolutwert der Luftdruckschwankungen des Tages3.00 hPa
Höchste gemessene Windgeschwindigkeit und Uhrzeit der Messung23:45:00 Uhr0.00 km/h
Errechnete Windhäufigkeit in Relation zu den Messwerten des Tages0.00000 %
Niedrigste Windkühle (Windchill) und Zeitpunkt der Messung23:45:00 Uhr5.30 °C
Taupunkt (Maximum / Höchstwert) und Uhrzeit der Messung14:45:00 Uhr10.90 °C
Taupunkt (Minimum / Tiefstwert) und Uhrzeit der Messung01:45:003.40 °C
Anzahl der automatisch eingelesenen Messwerte 96

Detaillierte Wetter- und Klima- Messwerte für den 04.04.2016 in Holzhau im Erzgebirge (630m ü.NN)
ZeitTemperaturLuftdruckRel. LuftfeuchteWindWindrichtungWindchillTaupunktNiederschlag l/m²
23:45:005.30 °C1005.30 hPa89.00 %3.60 °C 
23:30:005.40 °C1005.30 hPa89.00 %3.70 °C 
23:15:005.80 °C1005.40 hPa89.00 %4.10 °C 
23:00:005.50 °C1005.30 hPa88.00 %3.70 °C 
22:45:005.80 °C1005.60 hPa87.00 %3.80 °C 
22:30:006.10 °C1005.50 hPa87.00 %4.10 °C 
22:15:006.20 °C1005.70 hPa87.00 %4.20 °C 
22:00:006.50 °C1005.60 hPa86.00 %4.30 °C 
21:45:007.00 °C1005.70 hPa86.00 %4.80 °C 
21:30:007.10 °C1005.70 hPa85.00 %4.80 °C 
21:15:007.50 °C1005.70 hPa84.00 %5.00 °C 
21:00:007.90 °C1006.00 hPa84.00 %5.40 °C 
20:45:008.50 °C1005.90 hPa84.00 %6.00 °C 
20:30:008.60 °C1006.10 hPa83.00 %5.90 °C 
20:15:008.50 °C1006.00 hPa81.00 %5.40 °C 
20:00:008.90 °C1005.90 hPa79.00 %5.50 °C 
19:45:009.20 °C1005.70 hPa78.00 %5.60 °C 
19:30:009.80 °C1005.70 hPa76.00 %5.80 °C 
19:15:0010.30 °C1005.70 hPa74.00 %5.90 °C 
19:00:0011.20 °C1005.70 hPa73.00 %6.50 °C 
18:45:0012.30 °C1005.30 hPa70.00 %7.00 °C 
18:30:0013.80 °C1005.40 hPa68.00 %8.00 °C 
18:15:0014.90 °C1005.20 hPa66.00 %8.60 °C 
18:00:0015.90 °C1004.90 hPa64.00 %9.10 °C 
17:45:0016.40 °C1004.90 hPa63.00 %9.30 °C 
17:30:0016.70 °C1005.00 hPa61.00 %9.10 °C 
17:15:0017.00 °C1004.90 hPa60.00 %9.20 °C 
17:00:0017.60 °C1004.90 hPa58.00 %9.20 °C 
16:45:0018.10 °C1004.80 hPa57.00 %9.50 °C 
16:30:0018.60 °C1004.80 hPa56.00 %9.70 °C 
16:15:0018.90 °C1004.80 hPa56.00 %9.90 °C 
16:00:0018.90 °C1004.90 hPa56.00 %9.90 °C 
15:45:0018.90 °C1004.80 hPa56.00 %9.90 °C 
15:30:0019.00 °C1004.80 hPa56.00 %10.00 °C 
15:15:0019.40 °C1004.80 hPa55.00 %10.10 °C 
15:00:0019.80 °C1004.80 hPa56.00 %10.80 °C 
14:45:0019.60 °C1004.60 hPa57.00 %10.90 °C 
14:30:0019.00 °C1004.90 hPa59.00 %10.80 °C 
14:15:0018.10 °C1005.10 hPa59.00 %10.00 °C 
14:00:0017.80 °C1005.00 hPa61.00 %10.20 °C 
13:45:0017.00 °C1005.10 hPa61.00 %9.40 °C 
13:30:0017.10 °C1005.20 hPa60.00 %9.30 °C 
13:15:0017.20 °C1005.20 hPa58.00 %8.90 °C 
13:00:0017.30 °C1005.20 hPa58.00 %9.00 °C 
12:45:0017.50 °C1005.10 hPa57.00 %8.90 °C 
12:30:0017.80 °C1005.00 hPa55.00 %8.60 °C 
12:15:0018.60 °C1005.00 hPa53.00 %8.80 °C 
12:00:0019.40 °C1005.00 hPa50.00 %8.70 °C 
11:45:0020.20 °C1004.90 hPa48.00 %8.80 °C 
11:30:0020.40 °C1004.90 hPa52.00 %10.20 °C 
11:15:0019.80 °C1004.90 hPa54.00 %10.20 °C 
11:00:0018.90 °C1005.00 hPa56.00 %9.90 °C 
10:45:0018.40 °C1005.20 hPa57.00 %9.70 °C 
10:30:0017.80 °C1005.30 hPa59.00 %9.70 °C 
10:15:0017.40 °C1005.30 hPa62.00 %10.10 °C 
10:00:0016.60 °C1005.20 hPa63.00 %9.50 °C 
09:45:0015.90 °C1005.10 hPa63.00 %8.90 °C 
09:30:0015.60 °C1005.10 hPa64.00 %8.80 °C 
09:15:0015.60 °C1005.20 hPa65.00 %9.10 °C 
09:00:0015.30 °C1005.30 hPa65.00 %8.80 °C 
08:45:0014.90 °C1005.30 hPa67.00 %8.80 °C 
08:30:0014.90 °C1005.30 hPa69.00 %9.30 °C 
08:15:0014.30 °C1005.20 hPa70.00 %8.90 °C 
08:00:0013.80 °C1005.00 hPa72.00 %8.80 °C 
07:45:0013.30 °C1005.00 hPa74.00 %8.80 °C 
07:30:0012.50 °C1005.10 hPa76.00 %8.40 °C 
07:15:0011.60 °C1005.00 hPa78.00 %7.90 °C 
07:00:0010.60 °C1005.20 hPa79.00 %7.10 °C 
06:45:009.90 °C1005.30 hPa80.00 %6.60 °C 
06:30:009.50 °C1005.10 hPa81.00 %6.40 °C 
06:15:008.90 °C1005.30 hPa82.00 %6.00 °C 
06:00:008.60 °C1005.20 hPa82.00 %5.70 °C 
05:45:008.40 °C1005.30 hPa83.00 %5.70 °C 
05:30:008.30 °C1005.30 hPa83.00 %5.60 °C 
05:15:008.10 °C1005.40 hPa83.00 %5.40 °C 
05:00:007.90 °C1005.50 hPa84.00 %5.40 °C 
04:45:007.50 °C1005.60 hPa84.00 %5.00 °C 
04:30:007.10 °C1005.60 hPa84.00 %4.60 °C 
04:15:006.90 °C1005.90 hPa84.00 %4.40 °C 
04:00:007.30 °C1006.00 hPa84.00 %4.80 °C 
03:45:006.90 °C1006.00 hPa84.00 %4.40 °C 
03:30:006.60 °C1006.00 hPa83.00 %3.90 °C 
03:15:007.20 °C1006.10 hPa82.00 %4.30 °C 
03:00:007.40 °C1006.30 hPa83.00 %4.70 °C 
02:45:007.50 °C1006.60 hPa83.00 %4.80 °C 
02:30:007.40 °C1006.80 hPa83.00 %4.70 °C 
02:15:006.90 °C1006.80 hPa82.00 %4.00 °C 
02:00:007.00 °C1006.80 hPa82.00 %4.10 °C 
01:45:006.40 °C1006.90 hPa81.00 %3.40 °C 
01:30:006.80 °C1007.00 hPa79.00 %3.40 °C 
01:15:007.60 °C1007.10 hPa78.00 %4.00 °C 
01:00:008.30 °C1007.20 hPa78.00 %4.70 °C 
00:45:008.40 °C1007.10 hPa78.00 %4.80 °C 
00:30:008.20 °C1007.30 hPa77.00 %4.40 °C 
00:15:008.40 °C1007.50 hPa77.00 %4.60 °C 
00:00:008.50 °C1007.60 hPa77.00 %4.70 °C 

Permanenter Link zu dieser Seite: Wetter im Erzgebirge am 04.04.2016
Performance-Info: Die Erstellung der Seite / Statistik(en) / Tabelle(n) erforderte 5 Datenbankserver-Abfrage(n) und dauerte 93 Millisekunden. (Dieser Messwert ist von der Gesamt-Auslastung des Servers abhängig.)
Erzgebirge - Wetter | Erzgebirge - Wetter (Mobilgeräte) | Komplette Klimadatenbank